createdAt,value
2019-03-19T00:02:12.904Z,95276.5
2019-03-19T00:07:10.134Z,95273.7
2019-03-19T00:12:07.351Z,95269.8
2019-03-19T00:17:04.103Z,95267.8
2019-03-19T00:22:01.159Z,95102.3
2019-03-19T00:26:58.284Z,95235.8
2019-03-19T00:31:55.238Z,95271.1
2019-03-19T00:36:52.408Z,95260.7
2019-03-19T00:46:46.358Z,95274
2019-03-19T00:51:43.550Z,95274.4
2019-03-19T00:56:40.731Z,95196.2
2019-03-19T01:06:34.861Z,95252.5
2019-03-19T01:11:31.868Z,95272
2019-03-19T01:16:28.625Z,95283.8
2019-03-19T01:21:25.483Z,95285.4
2019-03-19T01:26:22.531Z,95291.5
2019-03-19T01:31:19.338Z,95308.2
2019-03-19T01:36:16.808Z,95300.7
2019-03-19T01:41:13.625Z,95280.2
2019-03-19T01:46:10.733Z,95307.7
2019-03-19T01:51:07.818Z,95307.4
2019-03-19T01:56:05.653Z,95312.6
2019-03-19T02:01:02.049Z,95302.6
2019-03-19T02:05:59.605Z,95328.2
2019-03-19T02:10:56.665Z,95330.2
2019-03-19T02:15:53.915Z,95343.3
2019-03-19T02:20:51.083Z,95350.5
2019-03-19T02:25:48.378Z,95349.2
2019-03-19T02:30:45.472Z,95366
2019-03-19T02:35:42.562Z,95358.9
2019-03-19T02:40:39.541Z,95322.8
2019-03-19T02:45:36.474Z,95290.9
2019-03-19T02:50:33.535Z,95320.9
2019-03-19T02:55:30.681Z,95314
2019-03-19T03:00:27.623Z,95327.4
2019-03-19T03:05:24.379Z,95325.9
2019-03-19T03:10:21.406Z,95324.9
2019-03-19T03:15:18.761Z,95421
2019-03-19T03:20:15.623Z,95339.5
2019-03-19T03:25:12.956Z,95342.1
2019-03-19T03:30:09.738Z,95343.4
2019-03-19T03:35:06.808Z,95346.6
2019-03-19T03:40:04.407Z,95355.8
2019-03-19T03:45:01.112Z,95401.1
2019-03-19T03:49:58.280Z,95350.4
2019-03-19T03:54:55.427Z,95371.7
2019-03-19T03:59:52.428Z,95384.2
2019-03-19T04:04:49.601Z,95469.2
2019-03-19T04:09:46.380Z,95383.4
2019-03-19T04:14:42.983Z,95391.7
2019-03-19T04:19:39.930Z,95390.8
2019-03-19T04:24:36.950Z,95394.1
2019-03-19T04:29:34.010Z,95403.8
2019-03-19T04:34:30.849Z,95317.1
2019-03-19T04:39:27.896Z,95410.9
2019-03-19T04:44:25.066Z,95422.3
2019-03-19T04:49:22.221Z,95430.6
2019-03-19T04:54:19.282Z,95432
2019-03-19T04:59:16.350Z,95520.7
2019-03-19T05:04:13.154Z,95445.2
2019-03-19T05:09:10.282Z,95444.1
2019-03-19T05:14:07.477Z,95452.3
2019-03-19T05:19:04.518Z,95458
2019-03-19T05:24:01.485Z,95461.8
2019-03-19T05:28:58.283Z,95467.4
2019-03-19T05:33:55.120Z,95457.8
2019-03-19T05:38:52.185Z,95454.2
2019-03-19T05:43:49.488Z,95457.8
2019-03-19T05:48:46.710Z,95462.2
2019-03-19T05:53:43.977Z,95453.1
2019-03-19T05:58:40.773Z,95478.4
2019-03-19T06:03:37.752Z,95447.7
2019-03-19T06:08:34.588Z,95466.7
2019-03-19T06:13:31.593Z,95448.9
2019-03-19T06:18:34.878Z,95461.3
2019-03-19T06:23:25.402Z,95471.8
2019-03-19T06:28:22.633Z,95372.2
2019-03-19T06:33:20.090Z,95592.8
2019-03-19T06:38:16.981Z,95450.5
2019-03-19T06:43:14.156Z,95475
2019-03-19T06:48:11.110Z,95459
2019-03-19T06:53:07.096Z,95501.1
2019-03-19T06:58:10.727Z,95455.8
2019-03-19T07:03:00.863Z,95480.8
2019-03-19T07:07:57.742Z,95488.2
2019-03-19T07:12:54.545Z,95483.6
2019-03-19T07:17:51.337Z,95483.3
2019-03-19T07:22:48.535Z,95495.6
2019-03-19T07:27:45.575Z,95499.7
2019-03-19T07:32:42.795Z,95495.3
2019-03-19T07:37:39.868Z,95499.1
2019-03-19T07:42:36.714Z,95497
2019-03-19T07:47:33.658Z,95492.9
2019-03-19T07:57:29.538Z,95502.1
2019-03-19T08:02:25.454Z,95641.2
2019-03-19T08:07:21.982Z,95495.8
2019-03-19T08:12:19.403Z,95490.9
2019-03-19T08:17:16.969Z,95568.1
2019-03-19T08:22:14.538Z,95575.7
2019-03-19T08:27:11.512Z,95499.7
2019-03-19T08:32:08.579Z,95308
2019-03-19T08:37:06.010Z,95567.2
2019-03-19T08:42:03.140Z,95489.7
2019-03-19T08:47:00.112Z,95474
2019-03-19T08:51:57.459Z,95478.2
2019-03-19T08:56:54.890Z,95549.5
2019-03-19T09:01:51.975Z,95546.4
2019-03-19T09:06:49.486Z,95470.5
2019-03-19T09:11:46.212Z,95550.9
2019-03-19T09:16:43.299Z,95547.1
2019-03-19T09:21:40.374Z,95543.3
2019-03-19T09:26:37.502Z,95548.5
2019-03-19T09:31:34.827Z,95553.6
2019-03-19T09:36:32.656Z,95469.1
2019-03-19T09:41:29.862Z,95463.4
2019-03-19T09:46:26.968Z,95542.1
2019-03-19T09:51:24.061Z,95539.9
2019-03-19T09:56:21.310Z,95541.6
2019-03-19T10:01:18.522Z,95536.6
2019-03-19T10:06:15.921Z,95535.5
2019-03-19T10:11:13.170Z,95526.5
2019-03-19T10:16:10.578Z,95526.2
2019-03-19T10:21:07.814Z,95519.6
2019-03-19T10:26:05.062Z,95508.7
2019-03-19T10:31:02.299Z,95511.4
2019-03-19T10:35:59.748Z,95505.3
2019-03-19T10:40:56.722Z,95502.3
2019-03-19T10:45:53.853Z,95503.4
2019-03-19T10:50:51.156Z,95387.9
2019-03-19T10:55:48.995Z,95483.9
2019-03-19T11:00:46.090Z,95479.5
2019-03-19T11:05:43.911Z,95449.1
2019-03-19T11:10:40.834Z,95470.5
2019-03-19T11:15:38.526Z,95466.3
2019-03-19T11:20:35.689Z,95468.6
2019-03-19T11:25:32.928Z,95452.6
2019-03-19T11:30:30.420Z,95449.8
2019-03-19T11:35:27.811Z,95422.4
2019-03-19T11:40:25.956Z,95441.2
2019-03-19T11:45:21.934Z,95436.8
2019-03-19T11:50:20.068Z,95371.3
2019-03-19T11:55:16.864Z,95422.2
2019-03-19T12:00:14.404Z,95429.9
2019-03-19T12:05:11.736Z,95413.6
2019-03-19T12:10:09.158Z,95412.1
2019-03-19T12:15:06.629Z,95467.1
2019-03-19T12:20:03.800Z,95465.2
2019-03-19T12:25:01.048Z,95427
2019-03-19T12:29:58.357Z,95320.5
2019-03-19T12:34:55.708Z,95317
2019-03-19T12:39:53.217Z,95308.1
2019-03-19T12:44:50.419Z,94554.4
2019-03-19T12:49:47.763Z,95307.3
2019-03-19T12:54:44.940Z,95310.8
2019-03-19T12:59:42.643Z,95305.7
2019-03-19T13:04:40.338Z,95382.8
2019-03-19T13:09:37.379Z,95309.9
2019-03-19T13:14:33.884Z,95311.6
2019-03-19T13:19:31.374Z,95318.7
2019-03-19T13:24:28.511Z,95302.3
2019-03-19T13:29:25.644Z,95301.4
2019-03-19T13:34:23.000Z,95312.5
2019-03-19T13:39:20.644Z,95376.9
2019-03-19T13:44:17.449Z,95322
2019-03-19T13:49:14.793Z,95303.3
2019-03-19T13:54:12.005Z,95295.5
2019-03-19T13:59:09.272Z,95310.2
2019-03-19T14:04:06.233Z,95303.3
2019-03-19T14:09:02.945Z,95422
2019-03-19T14:14:00.191Z,95431.4
2019-03-19T14:18:57.398Z,95317.1
2019-03-19T14:23:54.532Z,95380.8
2019-03-19T14:28:51.835Z,95441.2
2019-03-19T14:33:49.264Z,95444.4
2019-03-19T14:38:47.496Z,95387.1
2019-03-19T14:43:43.896Z,95444
2019-03-19T14:48:41.259Z,95443.9
2019-03-19T14:53:38.394Z,95429.8
2019-03-19T14:58:35.836Z,95409.1
2019-03-19T15:03:33.040Z,95414.1
2019-03-19T15:08:30.509Z,95421.3
2019-03-19T15:13:27.832Z,95429.7
2019-03-19T15:18:25.009Z,95441.6
2019-03-19T15:23:22.134Z,95447.2
2019-03-19T15:28:19.482Z,95458.6
2019-03-19T15:33:16.446Z,95468.6
2019-03-19T15:38:13.674Z,95469.9
2019-03-19T15:43:11.259Z,95471
2019-03-19T15:48:08.789Z,95475
2019-03-19T15:53:05.949Z,95483.9
2019-03-19T15:58:03.141Z,95493.5
2019-03-19T16:03:00.417Z,95501.4
2019-03-19T16:07:57.751Z,95517.8
2019-03-19T16:12:55.100Z,95520.5
2019-03-19T16:17:52.666Z,95526.8
2019-03-19T16:22:49.748Z,95538.9
2019-03-19T16:27:47.093Z,95547.4
2019-03-19T16:32:44.249Z,95549.7
2019-03-19T16:37:41.170Z,95556.6
2019-03-19T16:42:38.497Z,95568.4
2019-03-19T16:47:34.887Z,95579.1
2019-03-19T16:52:32.137Z,95593.8
2019-03-19T16:57:30.040Z,95603
2019-03-19T17:02:27.117Z,95602.3
2019-03-19T17:07:24.276Z,95611.4
2019-03-19T17:12:21.886Z,95619.1
2019-03-19T17:17:19.449Z,95540.2
2019-03-19T17:22:16.739Z,95636.2
2019-03-19T17:27:14.096Z,95645
2019-03-19T17:32:13.030Z,95650.2
2019-03-19T17:37:08.244Z,95662.7
2019-03-19T17:42:05.500Z,95671.8
2019-03-19T17:47:02.816Z,95677.8
2019-03-19T17:51:59.997Z,95682.9
2019-03-19T17:56:57.232Z,95691.2
2019-03-19T18:01:54.352Z,95692.9
2019-03-19T18:06:51.533Z,95700.3
2019-03-19T18:11:48.486Z,95819.3
2019-03-19T18:16:45.583Z,95713.4
2019-03-19T18:21:42.332Z,95722
2019-03-19T18:26:39.149Z,95728.3
2019-03-19T18:31:36.198Z,95737.5
2019-03-19T18:36:32.995Z,95738.3
2019-03-19T18:41:30.166Z,95745.3
2019-03-19T18:46:26.886Z,95745.8
2019-03-19T18:51:24.076Z,95729.4
2019-03-19T18:56:21.131Z,95763.4
2019-03-19T19:01:18.770Z,95688.2
2019-03-19T19:06:15.879Z,95767.8
2019-03-19T19:11:13.089Z,95772.3
2019-03-19T19:16:10.185Z,95772
2019-03-19T19:21:07.221Z,95739.2
2019-03-19T19:26:04.509Z,95785.3
2019-03-19T19:31:01.882Z,95794.7
2019-03-19T19:35:59.279Z,95720.3
2019-03-19T19:40:56.092Z,95774.7
2019-03-19T19:45:53.052Z,95807.7
2019-03-19T19:50:49.889Z,95817.3
2019-03-19T19:55:47.172Z,95794.9
2019-03-19T20:00:44.313Z,95825
2019-03-19T20:05:41.462Z,95830.9
2019-03-19T20:10:38.513Z,95833.6
2019-03-19T20:15:35.810Z,95840.5
2019-03-19T20:20:33.144Z,95842.7
2019-03-19T20:25:30.344Z,95849.7
2019-03-19T20:30:27.314Z,95854.6
2019-03-19T20:35:24.386Z,95859.7
2019-03-19T20:40:21.524Z,95857.7
2019-03-19T20:45:18.942Z,95871.7
2019-03-19T20:50:15.999Z,95871
2019-03-19T20:55:12.978Z,95869.2
2019-03-19T21:00:09.993Z,95875.1
2019-03-19T21:05:06.931Z,95886.7
2019-03-19T21:10:03.958Z,95885.8
2019-03-19T21:15:01.228Z,95814.8
2019-03-19T21:19:58.184Z,95815
2019-03-19T21:24:55.524Z,95895.5
2019-03-19T21:29:52.975Z,95821.6
2019-03-19T21:34:49.942Z,95890.6
2019-03-19T21:39:47.442Z,95812.8
2019-03-19T21:44:46.688Z,95894.1
2019-03-19T21:49:45.083Z,95902.3
2019-03-19T21:54:40.028Z,95900.1
2019-03-19T21:59:36.702Z,95882.4
2019-03-19T22:04:33.659Z,95902.4
2019-03-19T22:09:30.708Z,95906.5
2019-03-19T22:14:28.073Z,95825.7
2019-03-19T22:19:25.146Z,95835.8
2019-03-19T22:24:22.339Z,95825.2
2019-03-19T22:29:19.326Z,95884
2019-03-19T22:34:16.449Z,95848.6
2019-03-19T22:39:13.763Z,95918
2019-03-19T22:44:10.805Z,95840.9
2019-03-19T22:49:07.805Z,95848.8
2019-03-19T22:54:04.724Z,95855.2
2019-03-19T22:59:01.936Z,95846.5
2019-03-19T23:03:58.916Z,95848.2
2019-03-19T23:08:55.944Z,95768
2019-03-19T23:13:52.684Z,95857.9
2019-03-19T23:18:49.791Z,95860.6
2019-03-19T23:23:46.849Z,95868.9
2019-03-19T23:28:43.984Z,95871.4
2019-03-19T23:33:41.279Z,95918
2019-03-19T23:38:38.299Z,95870.9
2019-03-19T23:43:35.288Z,95875.1
2019-03-19T23:48:32.534Z,95873.9
2019-03-19T23:53:29.732Z,95905.6
2019-03-19T23:58:26.950Z,95887.8
